sensor_id;sensor_type;location;lat;lon;timestamp;P1;durP1;ratioP1;P2;durP2;ratioP2
17714;SDS011;8977;50.902;4.314;2023-08-01T00:00:28;1.85;;;1.33;;
17714;SDS011;8977;50.902;4.314;2023-08-01T00:02:55;2.35;;;1.50;;
17714;SDS011;8977;50.902;4.314;2023-08-01T00:05:24;4.40;;;1.40;;
17714;SDS011;8977;50.902;4.314;2023-08-01T00:07:51;3.05;;;1.80;;
17714;SDS011;8977;50.902;4.314;2023-08-01T00:10:18;3.47;;;1.60;;
17714;SDS011;8977;50.902;4.314;2023-08-01T00:12:45;3.80;;;1.80;;
17714;SDS011;8977;50.902;4.314;2023-08-01T00:15:12;4.30;;;1.52;;
17714;SDS011;8977;50.902;4.314;2023-08-01T00:17:38;2.13;;;1.50;;
17714;SDS011;8977;50.902;4.314;2023-08-01T00:20:06;3.28;;;1.60;;
17714;SDS011;8977;50.902;4.314;2023-08-01T00:22:35;2.00;;;1.52;;
17714;SDS011;8977;50.902;4.314;2023-08-01T00:25:02;3.70;;;1.80;;
17714;SDS011;8977;50.902;4.314;2023-08-01T00:27:29;4.18;;;1.48;;
17714;SDS011;8977;50.902;4.314;2023-08-01T00:29:57;5.10;;;2.00;;
17714;SDS011;8977;50.902;4.314;2023-08-01T00:32:24;3.00;;;1.70;;
17714;SDS011;8977;50.902;4.314;2023-08-01T00:34:51;2.90;;;1.92;;
17714;SDS011;8977;50.902;4.314;2023-08-01T00:37:18;4.43;;;2.13;;
17714;SDS011;8977;50.902;4.314;2023-08-01T00:39:46;2.72;;;1.75;;
17714;SDS011;8977;50.902;4.314;2023-08-01T00:42:13;2.95;;;1.70;;
17714;SDS011;8977;50.902;4.314;2023-08-01T00:44:40;3.10;;;1.90;;
17714;SDS011;8977;50.902;4.314;2023-08-01T00:47:06;3.35;;;1.83;;
17714;SDS011;8977;50.902;4.314;2023-08-01T00:49:34;4.53;;;2.00;;
17714;SDS011;8977;50.902;4.314;2023-08-01T00:52:01;3.78;;;1.83;;
17714;SDS011;8977;50.902;4.314;2023-08-01T00:54:29;4.90;;;2.03;;
17714;SDS011;8977;50.902;4.314;2023-08-01T00:57:02;4.20;;;2.65;;
17714;SDS011;8977;50.902;4.314;2023-08-01T00:59:29;2.75;;;2.28;;
17714;SDS011;8977;50.902;4.314;2023-08-01T01:01:56;3.80;;;2.00;;
17714;SDS011;8977;50.902;4.314;2023-08-01T01:04:24;4.55;;;2.30;;
17714;SDS011;8977;50.902;4.314;2023-08-01T01:06:52;4.65;;;2.50;;
17714;SDS011;8977;50.902;4.314;2023-08-01T01:09:27;3.60;;;2.17;;
17714;SDS011;8977;50.902;4.314;2023-08-01T01:11:56;5.43;;;2.60;;
17714;SDS011;8977;50.902;4.314;2023-08-01T01:14:25;3.03;;;2.45;;
17714;SDS011;8977;50.902;4.314;2023-08-01T01:16:52;4.03;;;2.63;;
17714;SDS011;8977;50.902;4.314;2023-08-01T01:19:19;6.65;;;2.63;;
17714;SDS011;8977;50.902;4.314;2023-08-01T01:21:47;4.10;;;2.63;;
17714;SDS011;8977;50.902;4.314;2023-08-01T01:24:15;5.28;;;3.08;;
17714;SDS011;8977;50.902;4.314;2023-08-01T01:26:44;3.25;;;2.58;;
17714;SDS011;8977;50.902;4.314;2023-08-01T01:29:12;5.95;;;3.28;;
17714;SDS011;8977;50.902;4.314;2023-08-01T01:31:40;6.25;;;2.97;;
17714;SDS011;8977;50.902;4.314;2023-08-01T01:34:09;6.05;;;2.90;;
17714;SDS011;8977;50.902;4.314;2023-08-01T01:36:36;8.27;;;3.20;;
17714;SDS011;8977;50.902;4.314;2023-08-01T01:39:04;4.55;;;2.97;;
17714;SDS011;8977;50.902;4.314;2023-08-01T01:41:31;4.68;;;3.20;;
17714;SDS011;8977;50.902;4.314;2023-08-01T01:43:58;4.43;;;3.13;;
17714;SDS011;8977;50.902;4.314;2023-08-01T01:46:25;5.00;;;3.00;;
17714;SDS011;8977;50.902;4.314;2023-08-01T01:48:52;4.95;;;2.53;;
17714;SDS011;8977;50.902;4.314;2023-08-01T01:51:19;9.35;;;3.15;;
17714;SDS011;8977;50.902;4.314;2023-08-01T01:53:46;6.88;;;3.40;;
17714;SDS011;8977;50.902;4.314;2023-08-01T01:56:14;5.55;;;2.97;;
17714;SDS011;8977;50.902;4.314;2023-08-01T01:58:41;6.30;;;3.60;;
17714;SDS011;8977;50.902;4.314;2023-08-01T02:01:08;7.05;;;3.13;;
17714;SDS011;8977;50.902;4.314;2023-08-01T02:03:35;6.82;;;3.55;;
17714;SDS011;8977;50.902;4.314;2023-08-01T02:06:02;6.75;;;3.40;;
17714;SDS011;8977;50.902;4.314;2023-08-01T02:08:29;5.07;;;3.15;;
17714;SDS011;8977;50.902;4.314;2023-08-01T02:10:56;7.00;;;3.63;;
17714;SDS011;8977;50.902;4.314;2023-08-01T02:13:25;5.97;;;3.45;;
17714;SDS011;8977;50.902;4.314;2023-08-01T02:15:53;6.53;;;3.78;;
17714;SDS011;8977;50.902;4.314;2023-08-01T02:18:20;7.20;;;3.90;;
17714;SDS011;8977;50.902;4.314;2023-08-01T02:20:47;5.75;;;3.83;;
17714;SDS011;8977;50.902;4.314;2023-08-01T02:23:13;6.47;;;3.70;;
17714;SDS011;8977;50.902;4.314;2023-08-01T02:25:40;6.30;;;4.60;;
17714;SDS011;8977;50.902;4.314;2023-08-01T02:28:08;7.15;;;4.53;;
17714;SDS011;8977;50.902;4.314;2023-08-01T02:30:36;8.13;;;4.40;;
17714;SDS011;8977;50.902;4.314;2023-08-01T02:33:03;8.93;;;4.88;;
17714;SDS011;8977;50.902;4.314;2023-08-01T02:35:30;8.68;;;5.00;;
17714;SDS011;8977;50.902;4.314;2023-08-01T02:37:57;7.88;;;4.65;;
17714;SDS011;8977;50.902;4.314;2023-08-01T02:40:23;8.52;;;5.15;;
17714;SDS011;8977;50.902;4.314;2023-08-01T02:42:51;8.95;;;5.22;;
17714;SDS011;8977;50.902;4.314;2023-08-01T02:45:18;6.90;;;4.80;;
17714;SDS011;8977;50.902;4.314;2023-08-01T02:47:47;9.70;;;4.32;;
17714;SDS011;8977;50.902;4.314;2023-08-01T02:50:13;10.75;;;5.20;;
17714;SDS011;8977;50.902;4.314;2023-08-01T02:52:40;7.70;;;5.35;;
17714;SDS011;8977;50.902;4.314;2023-08-01T02:55:07;9.95;;;5.22;;
17714;SDS011;8977;50.902;4.314;2023-08-01T02:57:35;10.13;;;5.13;;
17714;SDS011;8977;50.902;4.314;2023-08-01T03:00:02;9.15;;;5.55;;
17714;SDS011;8977;50.902;4.314;2023-08-01T03:02:31;7.97;;;4.75;;
17714;SDS011;8977;50.902;4.314;2023-08-01T03:04:59;7.82;;;4.57;;
17714;SDS011;8977;50.902;4.314;2023-08-01T03:07:27;10.05;;;4.97;;
17714;SDS011;8977;50.902;4.314;2023-08-01T03:09:54;7.60;;;4.60;;
17714;SDS011;8977;50.902;4.314;2023-08-01T03:12:21;10.25;;;5.45;;
17714;SDS011;8977;50.902;4.314;2023-08-01T03:14:47;7.68;;;4.60;;
17714;SDS011;8977;50.902;4.314;2023-08-01T03:17:14;7.88;;;4.72;;
17714;SDS011;8977;50.902;4.314;2023-08-01T03:19:41;9.48;;;5.18;;
17714;SDS011;8977;50.902;4.314;2023-08-01T03:22:10;8.73;;;5.30;;
17714;SDS011;8977;50.902;4.314;2023-08-01T03:24:37;7.18;;;4.63;;
17714;SDS011;8977;50.902;4.314;2023-08-01T03:27:04;9.88;;;5.30;;
17714;SDS011;8977;50.902;4.314;2023-08-01T03:29:31;11.73;;;5.00;;
17714;SDS011;8977;50.902;4.314;2023-08-01T03:31:58;13.18;;;5.03;;
17714;SDS011;8977;50.902;4.314;2023-08-01T03:34:25;8.82;;;5.28;;
17714;SDS011;8977;50.902;4.314;2023-08-01T03:36:52;8.68;;;5.05;;
17714;SDS011;8977;50.902;4.314;2023-08-01T03:39:21;8.82;;;5.20;;
17714;SDS011;8977;50.902;4.314;2023-08-01T03:41:47;11.05;;;5.85;;
17714;SDS011;8977;50.902;4.314;2023-08-01T03:44:14;10.48;;;5.53;;
17714;SDS011;8977;50.902;4.314;2023-08-01T03:46:42;8.57;;;5.32;;
17714;SDS011;8977;50.902;4.314;2023-08-01T03:49:09;9.35;;;5.72;;
17714;SDS011;8977;50.902;4.314;2023-08-01T03:51:35;8.57;;;5.13;;
17714;SDS011;8977;50.902;4.314;2023-08-01T03:54:02;10.18;;;5.45;;
17714;SDS011;8977;50.902;4.314;2023-08-01T03:56:31;9.15;;;5.22;;
17714;SDS011;8977;50.902;4.314;2023-08-01T03:58:57;14.85;;;6.20;;
17714;SDS011;8977;50.902;4.314;2023-08-01T04:01:24;13.65;;;6.20;;
17714;SDS011;8977;50.902;4.314;2023-08-01T04:03:51;9.65;;;5.40;;
17714;SDS011;8977;50.902;4.314;2023-08-01T04:06:18;12.35;;;5.38;;
17714;SDS011;8977;50.902;4.314;2023-08-01T04:08:45;9.32;;;5.20;;
17714;SDS011;8977;50.902;4.314;2023-08-01T04:11:12;13.70;;;6.32;;
17714;SDS011;8977;50.902;4.314;2023-08-01T04:13:40;10.55;;;6.32;;
17714;SDS011;8977;50.902;4.314;2023-08-01T04:16:07;11.02;;;6.25;;
17714;SDS011;8977;50.902;4.314;2023-08-01T04:18:34;11.27;;;6.25;;
17714;SDS011;8977;50.902;4.314;2023-08-01T04:21:01;11.60;;;5.90;;
17714;SDS011;8977;50.902;4.314;2023-08-01T04:23:28;9.60;;;5.80;;
17714;SDS011;8977;50.902;4.314;2023-08-01T04:25:55;10.48;;;5.95;;
17714;SDS011;8977;50.902;4.314;2023-08-01T04:28:23;13.18;;;5.82;;
17714;SDS011;8977;50.902;4.314;2023-08-01T04:30:51;10.57;;;5.28;;
17714;SDS011;8977;50.902;4.314;2023-08-01T04:33:18;11.30;;;5.70;;
17714;SDS011;8977;50.902;4.314;2023-08-01T04:35:45;10.20;;;5.25;;
17714;SDS011;8977;50.902;4.314;2023-08-01T04:38:14;9.43;;;5.82;;
17714;SDS011;8977;50.902;4.314;2023-08-01T04:40:41;10.73;;;5.82;;
17714;SDS011;8977;50.902;4.314;2023-08-01T04:43:09;9.40;;;5.80;;
17714;SDS011;8977;50.902;4.314;2023-08-01T04:45:36;8.90;;;5.68;;
17714;SDS011;8977;50.902;4.314;2023-08-01T04:48:04;9.10;;;5.43;;
17714;SDS011;8977;50.902;4.314;2023-08-01T04:50:31;12.10;;;5.68;;
17714;SDS011;8977;50.902;4.314;2023-08-01T04:52:58;10.70;;;5.57;;
17714;SDS011;8977;50.902;4.314;2023-08-01T04:55:25;8.52;;;5.80;;
17714;SDS011;8977;50.902;4.314;2023-08-01T04:57:52;12.63;;;6.20;;
17714;SDS011;8977;50.902;4.314;2023-08-01T05:00:19;13.98;;;6.05;;
17714;SDS011;8977;50.902;4.314;2023-08-01T05:02:46;9.77;;;5.65;;
17714;SDS011;8977;50.902;4.314;2023-08-01T05:05:14;13.15;;;6.00;;
17714;SDS011;8977;50.902;4.314;2023-08-01T05:07:42;11.07;;;5.72;;
17714;SDS011;8977;50.902;4.314;2023-08-01T05:10:09;10.80;;;5.80;;
17714;SDS011;8977;50.902;4.314;2023-08-01T05:12:36;13.70;;;6.07;;
17714;SDS011;8977;50.902;4.314;2023-08-01T05:15:03;15.10;;;5.60;;
17714;SDS011;8977;50.902;4.314;2023-08-01T05:17:30;10.60;;;5.90;;
17714;SDS011;8977;50.902;4.314;2023-08-01T05:19:57;9.57;;;5.10;;
17714;SDS011;8977;50.902;4.314;2023-08-01T05:22:25;11.15;;;5.20;;
17714;SDS011;8977;50.902;4.314;2023-08-01T05:24:52;8.43;;;5.22;;
17714;SDS011;8977;50.902;4.314;2023-08-01T05:27:19;8.43;;;5.43;;
17714;SDS011;8977;50.902;4.314;2023-08-01T05:29:46;14.90;;;5.88;;
17714;SDS011;8977;50.902;4.314;2023-08-01T05:32:13;11.30;;;4.97;;
17714;SDS011;8977;50.902;4.314;2023-08-01T05:34:40;13.15;;;5.15;;
17714;SDS011;8977;50.902;4.314;2023-08-01T05:37:07;11.70;;;5.68;;
17714;SDS011;8977;50.902;4.314;2023-08-01T05:39:35;11.80;;;5.20;;
17714;SDS011;8977;50.902;4.314;2023-08-01T05:42:02;11.07;;;5.68;;
17714;SDS011;8977;50.902;4.314;2023-08-01T05:44:33;9.20;;;5.55;;
17714;SDS011;8977;50.902;4.314;2023-08-01T05:47:00;7.65;;;5.00;;
17714;SDS011;8977;50.902;4.314;2023-08-01T05:49:27;11.13;;;5.47;;
17714;SDS011;8977;50.902;4.314;2023-08-01T05:51:54;11.68;;;5.35;;
17714;SDS011;8977;50.902;4.314;2023-08-01T05:54:21;10.57;;;5.63;;
17714;SDS011;8977;50.902;4.314;2023-08-01T05:56:49;12.05;;;6.00;;
17714;SDS011;8977;50.902;4.314;2023-08-01T05:59:16;9.77;;;5.85;;
17714;SDS011;8977;50.902;4.314;2023-08-01T06:01:44;14.48;;;6.45;;
17714;SDS011;8977;50.902;4.314;2023-08-01T06:04:11;12.70;;;5.95;;
17714;SDS011;8977;50.902;4.314;2023-08-01T06:06:38;11.65;;;4.88;;
17714;SDS011;8977;50.902;4.314;2023-08-01T06:09:05;11.00;;;5.55;;
17714;SDS011;8977;50.902;4.314;2023-08-01T06:11:32;10.30;;;5.75;;
17714;SDS011;8977;50.902;4.314;2023-08-01T06:14:01;12.27;;;5.85;;
17714;SDS011;8977;50.902;4.314;2023-08-01T06:16:27;11.45;;;5.47;;
17714;SDS011;8977;50.902;4.314;2023-08-01T06:18:55;11.38;;;5.68;;
17714;SDS011;8977;50.902;4.314;2023-08-01T06:21:22;12.25;;;5.43;;
17714;SDS011;8977;50.902;4.314;2023-08-01T06:23:49;8.95;;;6.00;;
17714;SDS011;8977;50.902;4.314;2023-08-01T06:26:16;9.95;;;5.57;;
17714;SDS011;8977;50.902;4.314;2023-08-01T06:28:42;8.52;;;5.40;;
17714;SDS011;8977;50.902;4.314;2023-08-01T06:31:11;10.48;;;5.30;;
17714;SDS011;8977;50.902;4.314;2023-08-01T06:33:37;9.68;;;5.80;;
17714;SDS011;8977;50.902;4.314;2023-08-01T06:36:04;14.90;;;6.53;;
17714;SDS011;8977;50.902;4.314;2023-08-01T06:38:31;11.27;;;5.80;;
17714;SDS011;8977;50.902;4.314;2023-08-01T06:40:58;9.70;;;5.70;;
17714;SDS011;8977;50.902;4.314;2023-08-01T06:43:25;6.55;;;5.07;;
17714;SDS011;8977;50.902;4.314;2023-08-01T06:45:52;11.82;;;6.20;;
17714;SDS011;8977;50.902;4.314;2023-08-01T06:48:20;12.57;;;6.00;;
17714;SDS011;8977;50.902;4.314;2023-08-01T06:50:47;11.48;;;5.70;;
17714;SDS011;8977;50.902;4.314;2023-08-01T06:53:13;11.55;;;5.30;;
17714;SDS011;8977;50.902;4.314;2023-08-01T06:55:40;10.70;;;5.22;;
17714;SDS011;8977;50.902;4.314;2023-08-01T06:58:07;13.30;;;5.93;;
17714;SDS011;8977;50.902;4.314;2023-08-01T07:00:34;11.35;;;5.68;;
17714;SDS011;8977;50.902;4.314;2023-08-01T07:03:01;12.65;;;5.85;;
17714;SDS011;8977;50.902;4.314;2023-08-01T07:05:29;11.20;;;5.75;;
17714;SDS011;8977;50.902;4.314;2023-08-01T07:07:56;13.43;;;6.00;;
17714;SDS011;8977;50.902;4.314;2023-08-01T07:10:23;9.93;;;5.28;;
17714;SDS011;8977;50.902;4.314;2023-08-01T07:12:50;13.02;;;5.75;;
17714;SDS011;8977;50.902;4.314;2023-08-01T07:15:17;12.65;;;6.10;;
17714;SDS011;8977;50.902;4.314;2023-08-01T07:17:44;9.80;;;5.50;;
17714;SDS011;8977;50.902;4.314;2023-08-01T07:20:11;11.98;;;5.40;;
17714;SDS011;8977;50.902;4.314;2023-08-01T07:22:40;11.63;;;5.18;;
17714;SDS011;8977;50.902;4.314;2023-08-01T07:25:07;10.38;;;4.50;;
17714;SDS011;8977;50.902;4.314;2023-08-01T07:27:34;11.85;;;5.25;;
17714;SDS011;8977;50.902;4.314;2023-08-01T07:30:02;11.43;;;5.30;;
17714;SDS011;8977;50.902;4.314;2023-08-01T07:32:30;9.35;;;5.13;;
17714;SDS011;8977;50.902;4.314;2023-08-01T07:34:57;9.25;;;4.50;;
17714;SDS011;8977;50.902;4.314;2023-08-01T07:37:23;9.63;;;4.72;;
17714;SDS011;8977;50.902;4.314;2023-08-01T07:39:54;10.38;;;5.38;;
17714;SDS011;8977;50.902;4.314;2023-08-01T07:42:21;12.20;;;5.97;;
17714;SDS011;8977;50.902;4.314;2023-08-01T07:44:48;9.25;;;5.35;;
17714;SDS011;8977;50.902;4.314;2023-08-01T07:47:15;11.73;;;5.78;;
17714;SDS011;8977;50.902;4.314;2023-08-01T08:41:02;9.67;;;4.47;;
17714;SDS011;8977;50.902;4.314;2023-08-01T08:43:34;7.27;;;3.77;;
17714;SDS011;8977;50.902;4.314;2023-08-01T08:46:02;7.93;;;3.97;;
17714;SDS011;8977;50.902;4.314;2023-08-01T08:48:30;6.75;;;3.70;;
17714;SDS011;8977;50.902;4.314;2023-08-01T08:50:59;8.75;;;4.10;;
17714;SDS011;8977;50.902;4.314;2023-08-01T08:53:27;9.50;;;4.10;;
17714;SDS011;8977;50.902;4.314;2023-08-01T08:55:54;7.90;;;3.55;;
17714;SDS011;8977;50.902;4.314;2023-08-01T08:58:22;9.65;;;3.60;;
17714;SDS011;8977;50.902;4.314;2023-08-01T09:00:50;6.70;;;3.50;;
17714;SDS011;8977;50.902;4.314;2023-08-01T09:03:16;6.57;;;3.80;;
17714;SDS011;8977;50.902;4.314;2023-08-01T09:05:45;6.75;;;3.47;;
17714;SDS011;8977;50.902;4.314;2023-08-01T09:08:15;6.13;;;3.50;;
17714;SDS011;8977;50.902;4.314;2023-08-01T09:10:44;5.88;;;3.30;;
17714;SDS011;8977;50.902;4.314;2023-08-01T09:13:12;5.75;;;3.13;;
17714;SDS011;8977;50.902;4.314;2023-08-01T09:15:41;8.32;;;3.40;;
17714;SDS011;8977;50.902;4.314;2023-08-01T09:18:08;8.27;;;2.92;;
17714;SDS011;8977;50.902;4.314;2023-08-01T09:20:45;5.80;;;3.20;;
17714;SDS011;8977;50.902;4.314;2023-08-01T09:23:13;5.10;;;3.05;;
17714;SDS011;8977;50.902;4.314;2023-08-01T09:25:41;6.35;;;3.33;;
17714;SDS011;8977;50.902;4.314;2023-08-01T09:28:15;4.72;;;2.60;;
17714;SDS011;8977;50.902;4.314;2023-08-01T09:30:47;4.07;;;2.45;;
17714;SDS011;8977;50.902;4.314;2023-08-01T09:33:15;7.00;;;2.72;;
17714;SDS011;8977;50.902;4.314;2023-08-01T09:35:41;6.15;;;2.83;;
17714;SDS011;8977;50.902;4.314;2023-08-01T09:38:09;6.00;;;3.13;;
17714;SDS011;8977;50.902;4.314;2023-08-01T09:40:37;5.75;;;2.92;;
17714;SDS011;8977;50.902;4.314;2023-08-01T09:43:04;6.18;;;3.40;;
17714;SDS011;8977;50.902;4.314;2023-08-01T09:45:32;4.68;;;3.00;;
17714;SDS011;8977;50.902;4.314;2023-08-01T09:48:00;5.80;;;3.03;;
17714;SDS011;8977;50.902;4.314;2023-08-01T09:50:28;6.40;;;3.40;;
17714;SDS011;8977;50.902;4.314;2023-08-01T09:52:55;5.35;;;3.20;;
17714;SDS011;8977;50.902;4.314;2023-08-01T09:55:25;5.65;;;3.20;;
17714;SDS011;8977;50.902;4.314;2023-08-01T09:57:53;9.35;;;3.33;;
17714;SDS011;8977;50.902;4.314;2023-08-01T10:00:24;5.78;;;3.33;;
17714;SDS011;8977;50.902;4.314;2023-08-01T10:02:52;5.72;;;3.33;;
17714;SDS011;8977;50.902;4.314;2023-08-01T10:05:20;6.15;;;3.50;;
17714;SDS011;8977;50.902;4.314;2023-08-01T10:07:49;5.82;;;3.15;;
17714;SDS011;8977;50.902;4.314;2023-08-01T10:10:19;5.43;;;2.95;;
17714;SDS011;8977;50.902;4.314;2023-08-01T10:12:47;6.07;;;3.58;;
17714;SDS011;8977;50.902;4.314;2023-08-01T10:15:15;3.90;;;3.38;;
17714;SDS011;8977;50.902;4.314;2023-08-01T10:17:43;5.78;;;3.67;;
17714;SDS011;8977;50.902;4.314;2023-08-01T10:20:10;6.10;;;3.45;;
17714;SDS011;8977;50.902;4.314;2023-08-01T10:22:43;4.95;;;3.28;;
17714;SDS011;8977;50.902;4.314;2023-08-01T10:25:10;9.13;;;3.10;;
17714;SDS011;8977;50.902;4.314;2023-08-01T10:27:38;6.88;;;2.95;;
17714;SDS011;8977;50.902;4.314;2023-08-01T10:30:06;4.80;;;3.08;;
17714;SDS011;8977;50.902;4.314;2023-08-01T10:32:35;5.20;;;2.90;;
17714;SDS011;8977;50.902;4.314;2023-08-01T10:35:03;6.38;;;3.35;;
17714;SDS011;8977;50.902;4.314;2023-08-01T10:37:43;2.78;;;2.40;;
17714;SDS011;8977;50.902;4.314;2023-08-01T10:40:12;4.35;;;2.60;;
17714;SDS011;8977;50.902;4.314;2023-08-01T10:42:39;7.28;;;2.65;;
17714;SDS011;8977;50.902;4.314;2023-08-01T10:45:07;3.75;;;2.35;;
17714;SDS011;8977;50.902;4.314;2023-08-01T10:47:45;5.75;;;2.63;;
17714;SDS011;8977;50.902;4.314;2023-08-01T10:50:13;4.70;;;2.38;;
17714;SDS011;8977;50.902;4.314;2023-08-01T10:52:40;4.03;;;2.40;;
17714;SDS011;8977;50.902;4.314;2023-08-01T10:55:09;4.80;;;2.22;;
17714;SDS011;8977;50.902;4.314;2023-08-01T10:57:37;3.40;;;2.15;;
17714;SDS011;8977;50.902;4.314;2023-08-01T11:00:14;6.80;;;2.17;;
17714;SDS011;8977;50.902;4.314;2023-08-01T11:02:48;4.40;;;2.10;;
17714;SDS011;8977;50.902;4.314;2023-08-01T11:05:15;5.20;;;2.10;;
17714;SDS011;8977;50.902;4.314;2023-08-01T11:07:52;6.20;;;2.15;;
17714;SDS011;8977;50.902;4.314;2023-08-01T11:10:21;7.45;;;2.55;;
17714;SDS011;8977;50.902;4.314;2023-08-01T11:12:48;4.90;;;1.95;;
17714;SDS011;8977;50.902;4.314;2023-08-01T11:15:15;5.53;;;2.38;;
17714;SDS011;8977;50.902;4.314;2023-08-01T11:17:42;5.50;;;2.35;;
17714;SDS011;8977;50.902;4.314;2023-08-01T11:20:12;3.83;;;1.95;;
17714;SDS011;8977;50.902;4.314;2023-08-01T11:22:50;6.25;;;2.55;;
17714;SDS011;8977;50.902;4.314;2023-08-01T11:25:18;4.90;;;2.60;;
17714;SDS011;8977;50.902;4.314;2023-08-01T11:27:45;3.38;;;1.95;;
17714;SDS011;8977;50.902;4.314;2023-08-01T11:30:12;5.97;;;2.80;;
17714;SDS011;8977;50.902;4.314;2023-08-01T11:32:39;3.92;;;2.60;;
17714;SDS011;8977;50.902;4.314;2023-08-01T11:35:06;6.35;;;2.33;;
17714;SDS011;8977;50.902;4.314;2023-08-01T11:37:33;3.60;;;2.28;;
17714;SDS011;8977;50.902;4.314;2023-08-01T11:40:03;5.55;;;2.08;;
17714;SDS011;8977;50.902;4.314;2023-08-01T11:42:33;4.72;;;1.83;;
17714;SDS011;8977;50.902;4.314;2023-08-01T11:45:09;3.78;;;2.13;;
17714;SDS011;8977;50.902;4.314;2023-08-01T11:47:37;5.28;;;1.80;;
17714;SDS011;8977;50.902;4.314;2023-08-01T11:50:10;9.18;;;2.03;;
17714;SDS011;8977;50.902;4.314;2023-08-01T11:52:37;4.20;;;1.80;;
17714;SDS011;8977;50.902;4.314;2023-08-01T11:55:06;3.97;;;2.00;;
17714;SDS011;8977;50.902;4.314;2023-08-01T11:57:33;4.50;;;1.80;;
17714;SDS011;8977;50.902;4.314;2023-08-01T12:00:00;3.88;;;1.48;;
17714;SDS011;8977;50.902;4.314;2023-08-01T12:02:28;5.30;;;1.75;;
17714;SDS011;8977;50.902;4.314;2023-08-01T12:04:55;3.45;;;1.58;;
17714;SDS011;8977;50.902;4.314;2023-08-01T12:07:24;4.43;;;1.75;;
17714;SDS011;8977;50.902;4.314;2023-08-01T12:09:55;3.38;;;1.30;;
17714;SDS011;8977;50.902;4.314;2023-08-01T12:12:25;3.70;;;1.80;;
17714;SDS011;8977;50.902;4.314;2023-08-01T12:14:53;5.43;;;1.70;;
17714;SDS011;8977;50.902;4.314;2023-08-01T12:17:20;3.95;;;1.63;;
17714;SDS011;8977;50.902;4.314;2023-08-01T12:19:47;5.50;;;1.73;;
17714;SDS011;8977;50.902;4.314;2023-08-01T12:22:14;3.28;;;1.33;;
17714;SDS011;8977;50.902;4.314;2023-08-01T12:24:41;4.15;;;1.98;;
17714;SDS011;8977;50.902;4.314;2023-08-01T12:27:08;3.50;;;1.58;;
17714;SDS011;8977;50.902;4.314;2023-08-01T12:29:37;3.35;;;1.42;;
17714;SDS011;8977;50.902;4.314;2023-08-01T12:32:04;4.18;;;1.77;;
17714;SDS011;8977;50.902;4.314;2023-08-01T12:34:33;3.40;;;1.60;;
17714;SDS011;8977;50.902;4.314;2023-08-01T12:37:00;4.53;;;1.42;;
17714;SDS011;8977;50.902;4.314;2023-08-01T12:39:27;3.40;;;1.35;;
17714;SDS011;8977;50.902;4.314;2023-08-01T12:41:53;1.70;;;1.50;;
17714;SDS011;8977;50.902;4.314;2023-08-01T12:44:20;3.72;;;1.55;;
17714;SDS011;8977;50.902;4.314;2023-08-01T12:46:48;3.38;;;1.25;;
17714;SDS011;8977;50.902;4.314;2023-08-01T12:49:17;2.90;;;1.30;;
17714;SDS011;8977;50.902;4.314;2023-08-01T12:51:44;3.42;;;1.30;;
17714;SDS011;8977;50.902;4.314;2023-08-01T12:54:11;3.03;;;1.25;;
17714;SDS011;8977;50.902;4.314;2023-08-01T12:56:38;4.00;;;1.67;;
17714;SDS011;8977;50.902;4.314;2023-08-01T12:59:05;5.55;;;1.30;;
17714;SDS011;8977;50.902;4.314;2023-08-01T13:01:31;2.38;;;1.30;;
17714;SDS011;8977;50.902;4.314;2023-08-01T13:04:00;2.67;;;1.45;;
17714;SDS011;8977;50.902;4.314;2023-08-01T13:06:26;3.03;;;1.38;;
17714;SDS011;8977;50.902;4.314;2023-08-01T13:08:53;4.15;;;1.45;;
17714;SDS011;8977;50.902;4.314;2023-08-01T13:11:20;3.60;;;1.60;;
17714;SDS011;8977;50.902;4.314;2023-08-01T13:13:47;4.88;;;1.48;;
17714;SDS011;8977;50.902;4.314;2023-08-01T13:16:13;3.20;;;1.48;;
17714;SDS011;8977;50.902;4.314;2023-08-01T13:18:40;3.22;;;1.38;;
17714;SDS011;8977;50.902;4.314;2023-08-01T13:21:12;5.50;;;1.70;;
17714;SDS011;8977;50.902;4.314;2023-08-01T13:23:39;4.82;;;1.70;;
17714;SDS011;8977;50.902;4.314;2023-08-01T13:26:06;3.45;;;1.50;;
17714;SDS011;8977;50.902;4.314;2023-08-01T13:28:33;2.95;;;1.42;;
17714;SDS011;8977;50.902;4.314;2023-08-01T13:30:59;4.38;;;1.90;;
17714;SDS011;8977;50.902;4.314;2023-08-01T13:33:26;3.25;;;1.63;;
17714;SDS011;8977;50.902;4.314;2023-08-01T13:35:53;5.30;;;1.73;;
17714;SDS011;8977;50.902;4.314;2023-08-01T13:38:21;3.95;;;1.85;;
17714;SDS011;8977;50.902;4.314;2023-08-01T13:40:48;5.57;;;1.85;;
17714;SDS011;8977;50.902;4.314;2023-08-01T13:43:15;4.53;;;1.70;;
17714;SDS011;8977;50.902;4.314;2023-08-01T13:45:42;3.75;;;1.42;;
17714;SDS011;8977;50.902;4.314;2023-08-01T13:48:09;4.38;;;1.67;;
17714;SDS011;8977;50.902;4.314;2023-08-01T13:50:35;3.90;;;1.70;;
17714;SDS011;8977;50.902;4.314;2023-08-01T13:53:02;2.28;;;1.50;;
17714;SDS011;8977;50.902;4.314;2023-08-01T13:55:33;5.20;;;2.00;;
17714;SDS011;8977;50.902;4.314;2023-08-01T13:58:00;2.92;;;1.35;;
17714;SDS011;8977;50.902;4.314;2023-08-01T14:00:27;6.93;;;1.77;;
17714;SDS011;8977;50.902;4.314;2023-08-01T14:02:54;4.90;;;2.08;;
17714;SDS011;8977;50.902;4.314;2023-08-01T14:05:21;5.18;;;1.70;;
17714;SDS011;8977;50.902;4.314;2023-08-01T14:07:47;5.45;;;1.50;;
17714;SDS011;8977;50.902;4.314;2023-08-01T14:10:14;5.07;;;1.60;;
17714;SDS011;8977;50.902;4.314;2023-08-01T14:12:42;5.30;;;1.60;;
17714;SDS011;8977;50.902;4.314;2023-08-01T14:15:09;3.25;;;1.50;;
17714;SDS011;8977;50.902;4.314;2023-08-01T14:17:38;7.03;;;1.77;;
17714;SDS011;8977;50.902;4.314;2023-08-01T14:20:05;2.95;;;1.40;;
17714;SDS011;8977;50.902;4.314;2023-08-01T14:22:32;4.72;;;1.50;;
17714;SDS011;8977;50.902;4.314;2023-08-01T14:24:59;4.47;;;1.50;;
17714;SDS011;8977;50.902;4.314;2023-08-01T14:27:26;4.97;;;2.13;;
17714;SDS011;8977;50.902;4.314;2023-08-01T14:29:54;4.43;;;1.40;;
17714;SDS011;8977;50.902;4.314;2023-08-01T14:32:21;5.03;;;1.95;;
17714;SDS011;8977;50.902;4.314;2023-08-01T14:34:48;3.35;;;1.65;;
17714;SDS011;8977;50.902;4.314;2023-08-01T14:37:15;4.30;;;1.92;;
17714;SDS011;8977;50.902;4.314;2023-08-01T14:39:41;3.75;;;1.60;;
17714;SDS011;8977;50.902;4.314;2023-08-01T14:42:08;4.68;;;2.25;;
17714;SDS011;8977;50.902;4.314;2023-08-01T14:44:35;5.18;;;1.65;;
17714;SDS011;8977;50.902;4.314;2023-08-01T14:47:03;6.22;;;1.80;;
17714;SDS011;8977;50.902;4.314;2023-08-01T14:49:31;4.25;;;1.70;;
17714;SDS011;8977;50.902;4.314;2023-08-01T14:51:57;4.95;;;2.03;;
17714;SDS011;8977;50.902;4.314;2023-08-01T14:54:24;3.95;;;2.05;;
17714;SDS011;8977;50.902;4.314;2023-08-01T14:56:51;3.08;;;2.15;;
17714;SDS011;8977;50.902;4.314;2023-08-01T14:59:18;5.47;;;3.40;;
17714;SDS011;8977;50.902;4.314;2023-08-01T15:01:45;5.70;;;3.20;;
17714;SDS011;8977;50.902;4.314;2023-08-01T15:04:13;6.70;;;3.58;;
17714;SDS011;8977;50.902;4.314;2023-08-01T15:06:40;6.63;;;3.50;;
17714;SDS011;8977;50.902;4.314;2023-08-01T15:09:07;6.95;;;3.10;;
17714;SDS011;8977;50.902;4.314;2023-08-01T15:11:35;3.80;;;2.50;;
17714;SDS011;8977;50.902;4.314;2023-08-01T15:14:02;3.65;;;2.35;;
17714;SDS011;8977;50.902;4.314;2023-08-01T15:16:28;5.30;;;2.38;;
17714;SDS011;8977;50.902;4.314;2023-08-01T15:18:55;5.15;;;1.60;;
17714;SDS011;8977;50.902;4.314;2023-08-01T15:21:23;5.13;;;1.58;;
17714;SDS011;8977;50.902;4.314;2023-08-01T15:23:52;9.20;;;2.17;;
17714;SDS011;8977;50.902;4.314;2023-08-01T15:26:19;5.28;;;2.00;;
17714;SDS011;8977;50.902;4.314;2023-08-01T15:28:46;4.32;;;2.20;;
17714;SDS011;8977;50.902;4.314;2023-08-01T15:31:12;7.13;;;2.25;;
17714;SDS011;8977;50.902;4.314;2023-08-01T15:33:40;9.35;;;2.25;;
17714;SDS011;8977;50.902;4.314;2023-08-01T15:36:07;5.60;;;2.03;;
17714;SDS011;8977;50.902;4.314;2023-08-01T15:38:37;4.88;;;1.73;;
17714;SDS011;8977;50.902;4.314;2023-08-01T15:41:05;6.28;;;2.05;;
17714;SDS011;8977;50.902;4.314;2023-08-01T15:43:33;5.65;;;2.35;;
17714;SDS011;8977;50.902;4.314;2023-08-01T15:46:01;8.02;;;2.70;;
17714;SDS011;8977;50.902;4.314;2023-08-01T15:48:28;6.03;;;2.47;;
17714;SDS011;8977;50.902;4.314;2023-08-01T15:50:55;5.40;;;1.90;;